createdAt,value
2023-04-12T00:00:17.977Z,97892.00
2023-04-12T00:02:45.202Z,97902.72
2023-04-12T00:05:38.685Z,97904.66
2023-04-12T00:08:39.144Z,97909.09
2023-04-12T00:11:30.132Z,97907.53
2023-04-12T00:14:21.197Z,97896.34
2023-04-12T00:17:04.369Z,97897.63
2023-04-12T00:19:55.974Z,97898.97
2023-04-12T00:22:46.794Z,97895.91
2023-04-12T00:25:14.493Z,97885.34
2023-04-12T00:27:42.210Z,97893.66
2023-04-12T00:30:09.452Z,97893.84
2023-04-12T00:32:36.686Z,97892.75
2023-04-12T00:35:03.705Z,97887.75
2023-04-12T00:37:30.770Z,97886.28
2023-04-12T00:39:57.755Z,97886.13
2023-04-12T00:42:24.675Z,97884.16
2023-04-12T00:44:51.594Z,97869.38
2023-04-12T00:47:18.751Z,97876.97
2023-04-12T00:49:45.907Z,97874.44
2023-04-12T00:52:15.046Z,97862.91
2023-04-12T00:54:43.598Z,97877.69
2023-04-12T00:57:10.789Z,97883.72
2023-04-12T00:59:37.759Z,97880.81
2023-04-12T01:02:04.999Z,97876.03
2023-04-12T01:04:32.262Z,97886.38
2023-04-12T01:07:47.028Z,97882.03
2023-04-12T01:11:02.012Z,97883.72
2023-04-12T01:14:00.570Z,97876.75
2023-04-12T01:17:18.693Z,97874.38
2023-04-12T01:20:49.750Z,97872.72
2023-04-12T01:23:53.524Z,97877.31
2023-04-12T01:26:42.355Z,97872.72
2023-04-12T01:29:11.863Z,97870.66
2023-04-12T01:32:00.602Z,97874.72
2023-04-12T01:34:31.870Z,97870.19
2023-04-12T01:37:02.545Z,97867.72
2023-04-12T01:39:34.312Z,97874.00
2023-04-12T01:42:01.317Z,97866.97
2023-04-12T01:44:29.935Z,97870.41
2023-04-12T01:46:57.346Z,97875.47
2023-04-12T01:49:29.566Z,97881.75
2023-04-12T01:52:04.185Z,97882.41
2023-04-12T01:54:36.983Z,97877.13
2023-04-12T01:57:08.744Z,97869.91
2023-04-12T01:59:41.208Z,97870.97
2023-04-12T02:02:09.540Z,97867.16
2023-04-12T02:04:38.702Z,97869.09
2023-04-12T02:07:05.973Z,97861.44
2023-04-12T02:09:40.786Z,97872.72
2023-04-12T02:12:08.144Z,97868.75
2023-04-12T02:14:35.147Z,97864.38
2023-04-12T02:17:05.733Z,97861.34
2023-04-12T02:19:33.069Z,97879.00
2023-04-12T02:22:00.135Z,97868.44
2023-04-12T02:24:27.600Z,97867.34
2023-04-12T02:26:55.306Z,97869.84
2023-04-12T02:29:22.290Z,97857.19
2023-04-12T02:31:49.198Z,97865.94
2023-04-12T02:34:18.327Z,97872.53
2023-04-12T02:36:49.484Z,97858.28
2023-04-12T02:39:19.672Z,97872.44
2023-04-12T02:41:46.570Z,97835.66
2023-04-12T02:44:13.752Z,97872.44
2023-04-12T02:46:40.719Z,97866.06
2023-04-12T02:49:08.000Z,97809.22
2023-04-12T02:51:35.506Z,97859.75
2023-04-12T02:54:02.570Z,97861.81
2023-04-12T02:56:30.102Z,97869.09
2023-04-12T02:58:57.197Z,97864.38
2023-04-12T03:01:24.164Z,97866.50
2023-04-12T03:03:51.178Z,97861.03
2023-04-12T03:06:18.138Z,97867.16
2023-04-12T03:08:45.177Z,97863.00
2023-04-12T03:11:12.145Z,97866.63
2023-04-12T03:13:39.026Z,97872.72
2023-04-12T03:16:30.305Z,97858.28
2023-04-12T03:18:57.921Z,97860.69
2023-04-12T03:21:24.849Z,97874.47
2023-04-12T03:23:52.916Z,97862.53
2023-04-12T03:26:20.767Z,97860.03
2023-04-12T03:28:48.367Z,97869.09
2023-04-12T03:31:15.786Z,97868.25
2023-04-12T03:33:42.731Z,97850.81
2023-04-12T03:36:10.566Z,97847.41
2023-04-12T03:38:37.537Z,97831.88
2023-04-12T03:41:04.602Z,97837.56
2023-04-12T03:43:36.170Z,97844.88
2023-04-12T03:46:06.811Z,97856.59
2023-04-12T03:48:33.936Z,97837.03
2023-04-12T03:51:08.750Z,97843.41
2023-04-12T03:53:35.775Z,97841.03
2023-04-12T03:56:02.757Z,97844.03
2023-04-12T03:58:29.806Z,97842.94
2023-04-12T04:00:56.894Z,97858.66
2023-04-12T04:03:27.251Z,97842.63
2023-04-12T04:05:54.454Z,97854.09
2023-04-12T04:08:21.589Z,97844.84
2023-04-12T04:10:48.552Z,97850.88
2023-04-12T04:13:15.551Z,97844.41
2023-04-12T04:15:42.486Z,97856.88
2023-04-12T04:18:09.413Z,97847.16
2023-04-12T04:20:36.344Z,97852.25
2023-04-12T04:23:03.306Z,97842.53
2023-04-12T04:25:30.351Z,97854.91
2023-04-12T04:27:58.399Z,97846.94
2023-04-12T04:30:26.798Z,97860.97
2023-04-12T04:32:53.905Z,97846.88
2023-04-12T04:35:22.008Z,97851.44
2023-04-12T04:37:48.948Z,97853.63
2023-04-12T04:40:16.164Z,97856.97
2023-04-12T04:42:43.442Z,97852.97
2023-04-12T04:45:14.253Z,97858.53
2023-04-12T04:47:41.556Z,97849.75
2023-04-12T04:50:08.864Z,97859.84
2023-04-12T04:52:37.886Z,97863.44
2023-04-12T04:55:07.436Z,97852.81
2023-04-12T04:57:35.752Z,97862.22
2023-04-12T05:00:11.301Z,97860.28
2023-04-12T05:02:40.273Z,97856.97
2023-04-12T05:05:12.765Z,97873.88
2023-04-12T05:07:40.094Z,97866.78
2023-04-12T05:10:07.689Z,97871.19
2023-04-12T05:12:34.749Z,97861.63
2023-04-12T05:17:32.359Z,97872.75
2023-04-12T05:19:59.422Z,97878.94
2023-04-12T05:22:26.483Z,97875.59
2023-04-12T05:24:53.418Z,97877.66
2023-04-12T05:27:20.411Z,97892.06
2023-04-12T05:29:47.527Z,97889.78
2023-04-12T05:32:14.458Z,97892.16
2023-04-12T05:34:42.488Z,97898.63
2023-04-12T05:37:09.463Z,97894.50
2023-04-12T05:39:36.368Z,97891.84
2023-04-12T05:42:03.447Z,97900.50
2023-04-12T05:44:30.376Z,97891.00
2023-04-12T05:46:57.359Z,97892.72
2023-04-12T05:49:24.404Z,97881.09
2023-04-12T05:51:51.305Z,97896.16
2023-04-12T05:54:21.208Z,97889.41
2023-04-12T05:56:48.224Z,97885.88
2023-04-12T05:59:15.220Z,97879.91
2023-04-12T06:01:44.883Z,97891.19
2023-04-12T06:04:12.127Z,97887.31
2023-04-12T06:06:39.177Z,97893.00
2023-04-12T06:09:06.136Z,97887.13
2023-04-12T06:11:35.994Z,97873.06
2023-04-12T06:14:03.027Z,97883.22
2023-04-12T06:16:30.165Z,97887.13
2023-04-12T06:18:57.324Z,97881.94
2023-04-12T06:21:25.132Z,97884.78
2023-04-12T06:23:52.026Z,97873.63
2023-04-12T06:26:19.076Z,97883.94
2023-04-12T06:28:46.012Z,97876.47
2023-04-12T06:31:13.100Z,97882.28
2023-04-12T06:33:40.043Z,97890.31
2023-04-12T06:36:07.549Z,97886.78
2023-04-12T06:38:34.477Z,97875.16
2023-04-12T06:41:01.591Z,97873.69
2023-04-12T06:43:28.729Z,97876.34
2023-04-12T06:45:57.255Z,97861.53
2023-04-12T06:48:24.404Z,97866.31
2023-04-12T06:50:51.357Z,97871.03
2023-04-12T06:53:18.322Z,97859.03
2023-04-12T06:55:45.226Z,97863.56
2023-04-12T06:58:12.332Z,97869.13
2023-04-12T07:00:39.406Z,97865.81
2023-04-12T07:03:06.423Z,97867.69
2023-04-12T07:05:33.415Z,97868.00
2023-04-12T07:08:00.497Z,97874.19
2023-04-12T07:10:27.473Z,97869.13
2023-04-12T07:12:54.380Z,97875.50
2023-04-12T07:15:21.356Z,97872.97
2023-04-12T07:17:48.421Z,97867.47
2023-04-12T07:20:15.469Z,97869.16
2023-04-12T07:22:42.420Z,97869.78
2023-04-12T07:25:11.067Z,97864.53
2023-04-12T07:27:38.090Z,97864.00
2023-04-12T07:30:05.327Z,97865.03
2023-04-12T07:32:32.381Z,97861.00
2023-04-12T07:34:59.491Z,97859.50
2023-04-12T07:37:26.687Z,97852.78
2023-04-12T07:39:53.680Z,97856.38
2023-04-12T07:42:20.615Z,97849.38
2023-04-12T07:44:47.568Z,97863.38
2023-04-12T07:47:14.543Z,97864.16
2023-04-12T07:49:41.660Z,97856.66
2023-04-12T07:52:08.565Z,97854.22
2023-04-12T07:54:35.549Z,97845.69
2023-04-12T07:57:06.549Z,97862.84
2023-04-12T07:59:34.370Z,97853.22
2023-04-12T08:02:02.287Z,97848.31
2023-04-12T08:04:29.514Z,97851.44
2023-04-12T08:06:56.513Z,97858.84
2023-04-12T08:09:24.768Z,97848.56
2023-04-12T08:11:51.841Z,97844.06
2023-04-12T08:14:18.796Z,97835.41
2023-04-12T08:16:45.802Z,97849.81
2023-04-12T08:19:12.744Z,97851.41
2023-04-12T08:21:39.736Z,97847.09
2023-04-12T08:24:07.024Z,97853.66
2023-04-12T08:26:34.018Z,97855.97
2023-04-12T08:29:01.204Z,97852.00
2023-04-12T08:31:28.744Z,97838.41
2023-04-12T08:33:56.902Z,97836.78
2023-04-12T08:36:24.071Z,97828.28
2023-04-12T08:38:52.765Z,97838.44
2023-04-12T08:41:20.421Z,97833.66
2023-04-12T08:43:48.010Z,97834.22
2023-04-12T08:46:16.111Z,97840.25
2023-04-12T08:48:48.071Z,97837.41
2023-04-12T08:51:17.086Z,97820.94
2023-04-12T08:56:13.279Z,97818.53
2023-04-12T08:58:42.247Z,97807.94
2023-04-12T09:01:14.321Z,97810.63
2023-04-12T09:03:45.003Z,97811.44
2023-04-12T09:06:13.328Z,97797.44
2023-04-12T09:08:53.982Z,97805.50
2023-04-12T09:11:31.141Z,97810.59
2023-04-12T09:13:59.022Z,97816.38
2023-04-12T09:16:42.349Z,97802.47
2023-04-12T09:19:09.651Z,97796.81
2023-04-12T09:21:37.423Z,97794.78
2023-04-12T09:24:14.773Z,97792.13
2023-04-12T09:26:42.400Z,97794.16
2023-04-12T09:29:26.430Z,97783.69
2023-04-12T09:32:03.423Z,97781.41
2023-04-12T09:34:31.675Z,97765.19
2023-04-12T09:36:59.134Z,97771.97
2023-04-12T09:39:36.827Z,97751.16
2023-04-12T09:42:21.507Z,97761.91
2023-04-12T09:44:58.029Z,97763.41
2023-04-12T09:47:40.781Z,97768.47
2023-04-12T09:50:10.107Z,97761.44
2023-04-12T09:52:40.508Z,97754.03
2023-04-12T09:55:10.828Z,97759.38
2023-04-12T09:57:41.726Z,97757.28
2023-04-12T10:00:13.065Z,97754.81
2023-04-12T10:02:44.469Z,97759.38
2023-04-12T10:05:15.130Z,97747.31
2023-04-12T10:07:42.786Z,97742.06
2023-04-12T10:10:12.747Z,97737.88
2023-04-12T10:12:44.369Z,97744.13
2023-04-12T10:15:18.123Z,97732.72
2023-04-12T10:17:48.062Z,97745.06
2023-04-12T10:20:17.188Z,97743.34
2023-04-12T10:22:51.701Z,97732.38
2023-04-12T10:25:21.873Z,97717.00
2023-04-12T10:27:49.306Z,97726.28
2023-04-12T10:30:20.958Z,97718.53
2023-04-12T10:32:48.096Z,97721.34
2023-04-12T10:35:15.165Z,97714.28
2023-04-12T10:38:01.661Z,97719.19
2023-04-12T10:40:31.809Z,97724.41
2023-04-12T10:43:23.810Z,97716.28
2023-04-12T10:45:51.212Z,97715.31
2023-04-12T10:48:32.323Z,97704.63
2023-04-12T10:51:35.181Z,97711.63
2023-04-12T10:54:07.954Z,97709.59
2023-04-12T10:56:36.734Z,97713.22
2023-04-12T10:59:05.599Z,97706.91
2023-04-12T11:01:33.702Z,97703.06
2023-04-12T11:04:22.275Z,97707.22
2023-04-12T11:07:07.563Z,97701.31
2023-04-12T11:09:34.484Z,97704.84
2023-04-12T11:12:04.536Z,97702.16
2023-04-12T11:14:43.502Z,97698.75
2023-04-12T11:17:10.436Z,97697.34
2023-04-12T11:19:39.375Z,97696.38
2023-04-12T11:22:08.601Z,97678.31
2023-04-12T11:24:48.275Z,97684.88
2023-04-12T11:27:18.799Z,97681.53
2023-04-12T11:29:49.105Z,97669.13
2023-04-12T11:32:16.457Z,97671.84
2023-04-12T11:34:46.344Z,97671.97
2023-04-12T11:37:13.648Z,97665.78
2023-04-12T11:39:45.725Z,97662.72
2023-04-12T11:42:15.818Z,97660.91
2023-04-12T11:44:56.026Z,97666.94
2023-04-12T11:47:25.850Z,97669.44
2023-04-12T11:49:58.292Z,97655.50
2023-04-12T11:52:32.817Z,97657.16
2023-04-12T11:55:02.514Z,97651.94
2023-04-12T11:57:29.494Z,97645.66
2023-04-12T11:59:59.382Z,97644.16
2023-04-12T12:02:29.859Z,97641.78
2023-04-12T12:04:59.134Z,97638.13
2023-04-12T12:07:26.774Z,97640.91
2023-04-12T12:09:54.374Z,97641.50
2023-04-12T12:12:24.525Z,97631.09
2023-04-12T12:14:51.973Z,97634.59
2023-04-12T12:17:19.640Z,97634.97
2023-04-12T12:19:46.915Z,97636.69
2023-04-12T12:22:16.838Z,97633.94
2023-04-12T12:24:49.989Z,97618.00
2023-04-12T12:27:22.863Z,97620.38
2023-04-12T12:29:51.884Z,97619.50
2023-04-12T12:32:20.334Z,97617.13
2023-04-12T12:34:55.285Z,97555.69
2023-04-12T12:37:28.751Z,97612.81
2023-04-12T12:40:16.912Z,97604.59
2023-04-12T12:42:56.523Z,97604.19
2023-04-12T12:45:29.370Z,97611.03
2023-04-12T12:48:04.943Z,97602.06
2023-04-12T12:50:36.649Z,97599.88
2023-04-12T12:53:04.335Z,97592.84
2023-04-12T12:55:31.756Z,97589.75
2023-04-12T12:58:06.762Z,97593.41
2023-04-12T13:00:34.851Z,97587.34
2023-04-12T13:03:02.183Z,97579.16
2023-04-12T13:05:29.751Z,97583.81
2023-04-12T13:07:56.693Z,97581.56
2023-04-12T13:10:24.005Z,97582.78
2023-04-12T13:12:50.935Z,97573.22
2023-04-12T13:15:22.983Z,97582.53
2023-04-12T13:17:55.160Z,97575.00
2023-04-12T13:20:23.382Z,97569.44
2023-04-12T13:22:55.005Z,97562.50
2023-04-12T13:25:22.078Z,97562.84
2023-04-12T13:27:49.881Z,97567.31
2023-04-12T13:30:17.109Z,97567.66
2023-04-12T13:32:44.976Z,97555.63
2023-04-12T13:35:12.858Z,97553.53
2023-04-12T13:37:40.197Z,97560.38
2023-04-12T13:40:07.686Z,97553.75
2023-04-12T13:42:34.880Z,97545.38
2023-04-12T13:45:02.199Z,97556.47
2023-04-12T13:47:29.120Z,97548.78
2023-04-12T13:49:56.183Z,97539.91
2023-04-12T13:52:23.248Z,97540.75
2023-04-12T13:54:51.612Z,97548.72
2023-04-12T13:57:18.598Z,97535.75
2023-04-12T13:59:45.598Z,97533.16
2023-04-12T14:02:12.515Z,97536.25
2023-04-12T14:04:52.117Z,97535.41
2023-04-12T14:07:19.773Z,97531.41
2023-04-12T14:09:48.902Z,97539.47
2023-04-12T14:12:16.248Z,97528.09
2023-04-12T14:14:43.396Z,97537.66
2023-04-12T14:17:10.482Z,97531.53
2023-04-12T14:19:37.438Z,97527.69
2023-04-12T14:22:04.404Z,97519.59
2023-04-12T14:24:32.042Z,97521.88
2023-04-12T14:27:01.151Z,97521.06
2023-04-12T14:29:28.164Z,97514.81
2023-04-12T14:31:55.190Z,97504.41
2023-04-12T14:34:22.127Z,97521.25
2023-04-12T14:36:49.064Z,97518.84
2023-04-12T14:39:16.338Z,97507.75
2023-04-12T14:41:43.385Z,97511.84
2023-04-12T14:44:10.383Z,97505.63
2023-04-12T14:46:37.379Z,97510.88
2023-04-12T14:49:04.326Z,97518.78
2023-04-12T14:51:32.337Z,97522.47
2023-04-12T14:53:59.470Z,97512.53
2023-04-12T14:56:29.934Z,97511.25
2023-04-12T14:58:58.089Z,97512.31
2023-04-12T15:01:26.012Z,97510.06
2023-04-12T15:03:53.772Z,97516.91
2023-04-12T15:06:24.060Z,97515.63
2023-04-12T15:08:55.246Z,97512.66
2023-04-12T15:11:30.164Z,97507.00
2023-04-12T15:13:57.527Z,97501.81
2023-04-12T15:16:24.846Z,97504.63
2023-04-12T15:18:52.090Z,97496.13
2023-04-12T15:21:19.117Z,97508.38
2023-04-12T15:23:46.345Z,97489.56
2023-04-12T15:26:14.481Z,97486.47
2023-04-12T15:28:42.616Z,97490.00
2023-04-12T15:31:12.268Z,97485.25
2023-04-12T15:33:39.256Z,97484.22
2023-04-12T15:36:06.515Z,97484.84
2023-04-12T15:38:41.309Z,97484.19
2023-04-12T15:41:08.736Z,97481.19
2023-04-12T15:43:35.622Z,97482.28
2023-04-12T15:46:02.739Z,97482.13
2023-04-12T15:48:29.754Z,97474.34
2023-04-12T15:50:57.168Z,97487.41
2023-04-12T15:53:26.257Z,97494.09
2023-04-12T15:55:56.677Z,97477.72
2023-04-12T15:58:29.592Z,97481.16
2023-04-12T16:00:56.483Z,97479.34
2023-04-12T16:03:26.536Z,97470.69
2023-04-12T16:05:54.798Z,97464.78
2023-04-12T16:08:22.641Z,97471.13
2023-04-12T16:10:52.626Z,97468.22
2023-04-12T16:13:19.738Z,97465.59
2023-04-12T16:15:47.613Z,97462.41
2023-04-12T16:18:14.642Z,97463.72
2023-04-12T16:20:41.626Z,97465.97
2023-04-12T16:23:09.405Z,97465.06
2023-04-12T16:25:36.482Z,97465.44
2023-04-12T16:28:04.042Z,97462.00
2023-04-12T16:30:32.431Z,97468.22
2023-04-12T16:32:59.789Z,97457.09
2023-04-12T16:35:26.972Z,97448.38
2023-04-12T16:37:54.872Z,97448.50
2023-04-12T16:40:22.478Z,97442.06
2023-04-12T16:42:49.529Z,97437.03
2023-04-12T16:45:16.618Z,97440.03
2023-04-12T16:47:46.345Z,97442.28
2023-04-12T16:50:13.780Z,97437.13
2023-04-12T16:52:41.724Z,97440.41
2023-04-12T16:55:11.708Z,97439.28
2023-04-12T16:57:43.041Z,97433.72
2023-04-12T17:00:22.417Z,97434.25
2023-04-12T17:02:51.220Z,97418.72
2023-04-12T17:05:20.030Z,97433.78
2023-04-12T17:07:54.498Z,97434.88
2023-04-12T17:10:23.506Z,97428.28
2023-04-12T17:12:52.898Z,97426.84
2023-04-12T17:15:25.526Z,97434.13
2023-04-12T17:17:59.838Z,97425.16
2023-04-12T17:20:27.410Z,97420.84
2023-04-12T17:22:55.323Z,97419.97
2023-04-12T17:25:25.838Z,97421.03
2023-04-12T17:27:54.372Z,97433.69
2023-04-12T17:30:21.345Z,97434.28
2023-04-12T17:32:48.646Z,97436.47
2023-04-12T17:35:18.009Z,97439.53
2023-04-12T17:37:46.046Z,97440.44
2023-04-12T17:40:14.301Z,97432.63
2023-04-12T17:42:43.091Z,97433.63
2023-04-12T17:45:14.888Z,97446.81
2023-04-12T17:47:42.882Z,97436.75
2023-04-12T17:50:15.258Z,97451.03
2023-04-12T17:52:42.631Z,97451.09
2023-04-12T17:55:10.158Z,97451.75
2023-04-12T17:57:37.097Z,97432.78
2023-04-12T18:00:14.541Z,97453.72
2023-04-12T18:02:44.003Z,97434.88
2023-04-12T18:05:11.652Z,97445.25
2023-04-12T18:07:40.316Z,97450.84
2023-04-12T18:10:09.311Z,97452.72
2023-04-12T18:12:36.535Z,97441.59
2023-04-12T18:15:04.077Z,97413.91
2023-04-12T18:17:31.276Z,97462.31
2023-04-12T18:19:59.052Z,97458.63
2023-04-12T18:22:27.286Z,97464.44
2023-04-12T18:24:54.221Z,97441.09
2023-04-12T18:27:21.344Z,97461.34
2023-04-12T18:30:03.713Z,97465.31
2023-04-12T18:32:31.346Z,97466.94
2023-04-12T18:34:58.410Z,97454.97
2023-04-12T18:37:25.439Z,97452.47
2023-04-12T18:39:53.554Z,97455.81
2023-04-12T18:42:20.567Z,97447.13
2023-04-12T18:44:47.598Z,97450.88
2023-04-12T18:47:14.901Z,97452.09
2023-04-12T18:49:41.823Z,97444.22
2023-04-12T18:52:08.812Z,97442.81
2023-04-12T18:54:35.677Z,97442.63
2023-04-12T18:57:03.715Z,97456.25
2023-04-12T18:59:31.148Z,97459.78
2023-04-12T19:01:58.214Z,97406.63
2023-04-12T19:04:25.291Z,97462.06
2023-04-12T19:06:52.828Z,97458.53
2023-04-12T19:09:19.725Z,97457.09
2023-04-12T19:11:46.683Z,97391.75
2023-04-12T19:14:13.868Z,97455.22
2023-04-12T19:16:41.212Z,97444.88
2023-04-12T19:19:08.259Z,97447.56
2023-04-12T19:21:35.639Z,97450.84
2023-04-12T19:24:02.553Z,97436.78
2023-04-12T19:26:30.500Z,97435.75
2023-04-12T19:28:59.020Z,97446.09
2023-04-12T19:31:26.357Z,97454.16
2023-04-12T19:33:54.927Z,97448.78
2023-04-12T19:36:24.919Z,97448.16
2023-04-12T19:38:52.343Z,97459.91
2023-04-12T19:41:20.664Z,97446.06
2023-04-12T19:43:47.988Z,97436.75
2023-04-12T19:46:15.093Z,97447.91
2023-04-12T19:48:42.881Z,97436.72
2023-04-12T19:51:09.832Z,97448.09
2023-04-12T19:53:37.019Z,97444.56
2023-04-12T19:56:06.947Z,97444.38
2023-04-12T19:58:34.795Z,97428.88
2023-04-12T20:01:03.068Z,97440.44
2023-04-12T20:03:30.439Z,97430.94
2023-04-12T20:05:59.315Z,97426.38
2023-04-12T20:08:29.691Z,97421.81
2023-04-12T20:10:56.856Z,97427.19
2023-04-12T20:13:23.903Z,97431.53
2023-04-12T20:15:51.348Z,97425.13
2023-04-12T20:18:18.301Z,97437.53
2023-04-12T20:20:45.856Z,97430.91
2023-04-12T20:23:14.150Z,97428.25
2023-04-12T20:25:42.048Z,97425.94
2023-04-12T20:28:09.636Z,97412.91
2023-04-12T20:30:36.967Z,97424.47
2023-04-12T20:33:04.405Z,97425.66
2023-04-12T20:35:31.621Z,97436.16
2023-04-12T20:37:58.598Z,97424.56
2023-04-12T20:40:28.162Z,97424.16
2023-04-12T20:42:55.322Z,97413.00
2023-04-12T20:45:22.617Z,97414.19
2023-04-12T20:47:49.727Z,97416.22
2023-04-12T20:50:17.865Z,97400.50
2023-04-12T20:52:45.749Z,97415.16
2023-04-12T20:55:14.303Z,97416.41
2023-04-12T20:57:42.062Z,97412.66
2023-04-12T21:00:17.411Z,97403.94
2023-04-12T21:02:49.077Z,97410.38
2023-04-12T21:05:18.338Z,97414.91
2023-04-12T21:07:47.169Z,97420.69
2023-04-12T21:10:15.052Z,97418.78
2023-04-12T21:12:45.251Z,97414.84
2023-04-12T21:15:13.075Z,97406.56
2023-04-12T21:17:40.797Z,97387.41
2023-04-12T21:20:17.831Z,97416.22
2023-04-12T21:22:47.008Z,97404.13
2023-04-12T21:25:16.966Z,97405.44
2023-04-12T21:27:47.381Z,97399.22
2023-04-12T21:30:14.591Z,97378.22
2023-04-12T21:32:43.077Z,97393.47
2023-04-12T21:35:11.342Z,97391.44
2023-04-12T21:37:39.584Z,97382.66
2023-04-12T21:40:09.557Z,97383.00
2023-04-12T21:42:41.254Z,97391.47
2023-04-12T21:45:09.901Z,97376.41
2023-04-12T21:47:40.203Z,97388.22
2023-04-12T21:50:08.376Z,97391.50
2023-04-12T21:52:35.784Z,97387.81
2023-04-12T21:55:05.090Z,97388.34
2023-04-12T21:57:32.992Z,97393.53
2023-04-12T22:00:00.048Z,97393.88
2023-04-12T22:02:27.656Z,97387.91
2023-04-12T22:04:54.740Z,97374.75
2023-04-12T22:07:21.885Z,97379.53
2023-04-12T22:09:48.855Z,97391.16
2023-04-12T22:12:18.221Z,97394.44
2023-04-12T22:14:50.024Z,97393.16
2023-04-12T22:17:18.537Z,97386.81
2023-04-12T22:19:45.620Z,97383.25
2023-04-12T22:22:14.447Z,97361.97
2023-04-12T22:24:41.583Z,97319.34
2023-04-12T22:27:09.465Z,97385.47
2023-04-12T22:29:37.998Z,97377.72
2023-04-12T22:32:05.148Z,97384.53
2023-04-12T22:34:32.701Z,97388.84
2023-04-12T22:36:59.559Z,97375.22
2023-04-12T22:39:27.107Z,97378.56
2023-04-12T22:41:54.564Z,97379.38
2023-04-12T22:44:24.217Z,97380.19
2023-04-12T22:46:54.692Z,97372.34
2023-04-12T22:49:28.480Z,97372.53
2023-04-12T22:51:56.033Z,97377.66
2023-04-12T22:54:24.428Z,97373.25
2023-04-12T22:56:51.815Z,97361.66
2023-04-12T22:59:20.344Z,97364.28
2023-04-12T23:01:47.544Z,97360.03
2023-04-12T23:04:16.116Z,97351.66
2023-04-12T23:06:43.986Z,97352.00
2023-04-12T23:09:13.056Z,97348.03
2023-04-12T23:11:41.239Z,97275.75
2023-04-12T23:14:09.227Z,97330.38
2023-04-12T23:16:42.650Z,97325.78
2023-04-12T23:19:09.565Z,97328.91
2023-04-12T23:21:37.427Z,97307.94
2023-04-12T23:24:05.354Z,97307.94
2023-04-12T23:26:34.558Z,97273.72
2023-04-12T23:29:03.906Z,97300.88
2023-04-12T23:31:32.617Z,97238.94
2023-04-12T23:34:03.917Z,97295.69
2023-04-12T23:36:31.217Z,97290.97
2023-04-12T23:39:00.536Z,97266.69
2023-04-12T23:41:31.984Z,97283.75
2023-04-12T23:44:00.227Z,97280.78
2023-04-12T23:46:28.120Z,97282.63
2023-04-12T23:48:55.470Z,97283.03
2023-04-12T23:51:23.003Z,97275.50
2023-04-12T23:53:50.446Z,97280.03
2023-04-12T23:56:17.441Z,97288.09
2023-04-12T23:58:44.451Z,97276.88
